sensor_id;sensor_type;location;lat;lon;timestamp;P1;durP1;ratioP1;P2;durP2;ratioP2
7013;SDS011;3547;50.774;12.918;2024-03-23T00:52:15;12.17;;;3.90;;
7013;SDS011;3547;50.774;12.918;2024-03-23T00:54:41;4.67;;;3.47;;
7013;SDS011;3547;50.774;12.918;2024-03-23T00:57:08;4.97;;;3.60;;
7013;SDS011;3547;50.774;12.918;2024-03-23T00:59:34;5.00;;;3.70;;
7013;SDS011;3547;50.774;12.918;2024-03-23T01:02:00;4.43;;;3.03;;
7013;SDS011;3547;50.774;12.918;2024-03-23T01:04:26;4.73;;;3.80;;
7013;SDS011;3547;50.774;12.918;2024-03-23T01:06:52;4.93;;;3.50;;
7013;SDS011;3547;50.774;12.918;2024-03-23T01:09:18;4.13;;;3.57;;
7013;SDS011;3547;50.774;12.918;2024-03-23T01:11:44;4.87;;;3.83;;
7013;SDS011;3547;50.774;12.918;2024-03-23T01:14:10;6.60;;;3.70;;
7013;SDS011;3547;50.774;12.918;2024-03-23T01:16:36;4.93;;;3.73;;
7013;SDS011;3547;50.774;12.918;2024-03-23T01:19:02;4.97;;;3.43;;
7013;SDS011;3547;50.774;12.918;2024-03-23T01:21:28;4.37;;;3.37;;
7013;SDS011;3547;50.774;12.918;2024-03-23T01:23:55;4.53;;;3.10;;
7013;SDS011;3547;50.774;12.918;2024-03-23T01:26:21;5.30;;;4.10;;
7013;SDS011;3547;50.774;12.918;2024-03-23T01:28:47;4.33;;;3.13;;
7013;SDS011;3547;50.774;12.918;2024-03-23T01:31:13;9.03;;;3.80;;
7013;SDS011;3547;50.774;12.918;2024-03-23T01:33:41;6.73;;;4.57;;
7013;SDS011;3547;50.774;12.918;2024-03-23T01:36:07;5.37;;;3.80;;
7013;SDS011;3547;50.774;12.918;2024-03-23T01:38:33;5.33;;;3.30;;
7013;SDS011;3547;50.774;12.918;2024-03-23T01:41:02;6.27;;;4.10;;
7013;SDS011;3547;50.774;12.918;2024-03-23T01:43:28;4.77;;;3.80;;
7013;SDS011;3547;50.774;12.918;2024-03-23T01:45:54;6.83;;;3.70;;
7013;SDS011;3547;50.774;12.918;2024-03-23T01:48:21;5.47;;;4.27;;
7013;SDS011;3547;50.774;12.918;2024-03-23T01:50:47;5.87;;;3.93;;
7013;SDS011;3547;50.774;12.918;2024-03-23T01:53:14;6.13;;;3.83;;
7013;SDS011;3547;50.774;12.918;2024-03-23T01:55:43;4.67;;;3.47;;
7013;SDS011;3547;50.774;12.918;2024-03-23T01:58:09;6.20;;;4.00;;
7013;SDS011;3547;50.774;12.918;2024-03-23T02:00:35;4.50;;;3.70;;
7013;SDS011;3547;50.774;12.918;2024-03-23T02:03:02;8.37;;;3.80;;
7013;SDS011;3547;50.774;12.918;2024-03-23T02:05:28;6.70;;;4.10;;
7013;SDS011;3547;50.774;12.918;2024-03-23T02:07:55;5.77;;;4.27;;
7013;SDS011;3547;50.774;12.918;2024-03-23T02:10:21;6.90;;;4.50;;
7013;SDS011;3547;50.774;12.918;2024-03-23T02:12:47;8.20;;;3.87;;
7013;SDS011;3547;50.774;12.918;2024-03-23T02:15:13;4.47;;;3.57;;
7013;SDS011;3547;50.774;12.918;2024-03-23T02:17:39;5.40;;;3.70;;
7013;SDS011;3547;50.774;12.918;2024-03-23T02:20:05;8.37;;;4.13;;
7013;SDS011;3547;50.774;12.918;2024-03-23T02:22:38;4.53;;;3.47;;
7013;SDS011;3547;50.774;12.918;2024-03-23T02:25:05;4.53;;;3.57;;
7013;SDS011;3547;50.774;12.918;2024-03-23T02:27:31;5.73;;;3.80;;
7013;SDS011;3547;50.774;12.918;2024-03-23T02:29:58;6.50;;;3.33;;
7013;SDS011;3547;50.774;12.918;2024-03-23T02:32:25;4.20;;;3.73;;
7013;SDS011;3547;50.774;12.918;2024-03-23T02:34:51;5.23;;;3.63;;
7013;SDS011;3547;50.774;12.918;2024-03-23T02:37:17;5.00;;;3.60;;
7013;SDS011;3547;50.774;12.918;2024-03-23T02:39:43;5.00;;;3.00;;
7013;SDS011;3547;50.774;12.918;2024-03-23T02:42:09;4.07;;;3.20;;
7013;SDS011;3547;50.774;12.918;2024-03-23T02:44:36;4.03;;;3.40;;
7013;SDS011;3547;50.774;12.918;2024-03-23T02:47:02;4.67;;;3.43;;
7013;SDS011;3547;50.774;12.918;2024-03-23T02:49:28;6.63;;;3.73;;
7013;SDS011;3547;50.774;12.918;2024-03-23T02:51:54;4.60;;;3.87;;
7013;SDS011;3547;50.774;12.918;2024-03-23T02:54:20;4.83;;;3.23;;
7013;SDS011;3547;50.774;12.918;2024-03-23T02:56:46;5.40;;;4.20;;
7013;SDS011;3547;50.774;12.918;2024-03-23T02:59:12;7.83;;;4.03;;
7013;SDS011;3547;50.774;12.918;2024-03-23T03:01:38;7.23;;;4.13;;
7013;SDS011;3547;50.774;12.918;2024-03-23T03:04:04;6.60;;;3.77;;
7013;SDS011;3547;50.774;12.918;2024-03-23T03:06:31;7.03;;;3.60;;
7013;SDS011;3547;50.774;12.918;2024-03-23T03:08:57;4.63;;;3.90;;
7013;SDS011;3547;50.774;12.918;2024-03-23T03:11:23;4.60;;;3.67;;
7013;SDS011;3547;50.774;12.918;2024-03-23T03:13:49;6.40;;;4.03;;
7013;SDS011;3547;50.774;12.918;2024-03-23T03:16:15;4.43;;;3.30;;
7013;SDS011;3547;50.774;12.918;2024-03-23T03:18:41;5.80;;;4.30;;
7013;SDS011;3547;50.774;12.918;2024-03-23T03:21:07;6.03;;;4.40;;
7013;SDS011;3547;50.774;12.918;2024-03-23T03:23:37;6.87;;;4.23;;
7013;SDS011;3547;50.774;12.918;2024-03-23T03:26:04;5.13;;;3.67;;
7013;SDS011;3547;50.774;12.918;2024-03-23T03:28:31;7.93;;;4.60;;
7013;SDS011;3547;50.774;12.918;2024-03-23T03:31:01;7.63;;;4.10;;
7013;SDS011;3547;50.774;12.918;2024-03-23T03:33:27;3.70;;;3.23;;
7013;SDS011;3547;50.774;12.918;2024-03-23T03:35:54;4.47;;;3.30;;
7013;SDS011;3547;50.774;12.918;2024-03-23T03:38:20;4.40;;;3.23;;
7013;SDS011;3547;50.774;12.918;2024-03-23T03:40:47;5.27;;;3.10;;
7013;SDS011;3547;50.774;12.918;2024-03-23T03:43:13;4.63;;;3.30;;
7013;SDS011;3547;50.774;12.918;2024-03-23T03:45:39;5.87;;;4.17;;
7013;SDS011;3547;50.774;12.918;2024-03-23T03:48:06;6.93;;;4.43;;
7013;SDS011;3547;50.774;12.918;2024-03-23T03:50:32;7.43;;;4.50;;
7013;SDS011;3547;50.774;12.918;2024-03-23T03:52:58;7.33;;;4.57;;
7013;SDS011;3547;50.774;12.918;2024-03-23T03:55:24;5.80;;;3.40;;
7013;SDS011;3547;50.774;12.918;2024-03-23T03:57:50;3.93;;;2.80;;
7013;SDS011;3547;50.774;12.918;2024-03-23T04:00:17;6.10;;;3.67;;
7013;SDS011;3547;50.774;12.918;2024-03-23T04:02:43;7.23;;;3.53;;
7013;SDS011;3547;50.774;12.918;2024-03-23T04:05:09;7.33;;;4.63;;
7013;SDS011;3547;50.774;12.918;2024-03-23T04:07:35;4.83;;;3.83;;
7013;SDS011;3547;50.774;12.918;2024-03-23T04:10:01;6.67;;;4.47;;
7013;SDS011;3547;50.774;12.918;2024-03-23T04:12:28;5.80;;;4.53;;
7013;SDS011;3547;50.774;12.918;2024-03-23T04:14:54;8.73;;;4.40;;
7013;SDS011;3547;50.774;12.918;2024-03-23T04:20:42;8.43;;;5.07;;
7013;SDS011;3547;50.774;12.918;2024-03-23T04:23:08;6.50;;;4.40;;
7013;SDS011;3547;50.774;12.918;2024-03-23T04:25:34;7.07;;;5.07;;
7013;SDS011;3547;50.774;12.918;2024-03-23T04:28:00;5.50;;;4.03;;
7013;SDS011;3547;50.774;12.918;2024-03-23T04:30:26;8.20;;;5.53;;
7013;SDS011;3547;50.774;12.918;2024-03-23T04:32:54;7.07;;;4.90;;
7013;SDS011;3547;50.774;12.918;2024-03-23T04:35:20;7.37;;;4.73;;
7013;SDS011;3547;50.774;12.918;2024-03-23T04:37:47;8.03;;;5.30;;
7013;SDS011;3547;50.774;12.918;2024-03-23T04:40:13;6.47;;;4.23;;
7013;SDS011;3547;50.774;12.918;2024-03-23T04:42:39;6.03;;;4.67;;
7013;SDS011;3547;50.774;12.918;2024-03-23T04:45:06;6.50;;;4.83;;
7013;SDS011;3547;50.774;12.918;2024-03-23T04:47:32;6.97;;;4.40;;
7013;SDS011;3547;50.774;12.918;2024-03-23T04:49:58;6.47;;;4.63;;
7013;SDS011;3547;50.774;12.918;2024-03-23T04:52:24;5.80;;;4.00;;
7013;SDS011;3547;50.774;12.918;2024-03-23T04:54:50;8.70;;;4.40;;
7013;SDS011;3547;50.774;12.918;2024-03-23T04:57:17;7.73;;;4.90;;
7013;SDS011;3547;50.774;12.918;2024-03-23T04:59:43;7.17;;;4.93;;
7013;SDS011;3547;50.774;12.918;2024-03-23T05:02:09;8.13;;;4.40;;
7013;SDS011;3547;50.774;12.918;2024-03-23T05:04:35;6.27;;;4.87;;
7013;SDS011;3547;50.774;12.918;2024-03-23T05:07:03;6.50;;;4.40;;
7013;SDS011;3547;50.774;12.918;2024-03-23T05:09:30;7.13;;;5.27;;
7013;SDS011;3547;50.774;12.918;2024-03-23T05:11:57;8.03;;;5.37;;
7013;SDS011;3547;50.774;12.918;2024-03-23T05:14:23;6.00;;;4.67;;
7013;SDS011;3547;50.774;12.918;2024-03-23T05:16:49;9.17;;;5.70;;
7013;SDS011;3547;50.774;12.918;2024-03-23T05:19:15;6.77;;;5.07;;
7013;SDS011;3547;50.774;12.918;2024-03-23T05:21:41;8.37;;;6.13;;
7013;SDS011;3547;50.774;12.918;2024-03-23T05:24:07;6.97;;;5.53;;
7013;SDS011;3547;50.774;12.918;2024-03-23T05:26:33;7.47;;;5.10;;
7013;SDS011;3547;50.774;12.918;2024-03-23T05:29:01;8.13;;;5.27;;
7013;SDS011;3547;50.774;12.918;2024-03-23T05:31:28;10.47;;;6.07;;
7013;SDS011;3547;50.774;12.918;2024-03-23T05:33:55;8.87;;;5.47;;
7013;SDS011;3547;50.774;12.918;2024-03-23T05:36:22;8.23;;;5.83;;
7013;SDS011;3547;50.774;12.918;2024-03-23T05:38:49;8.50;;;5.37;;
7013;SDS011;3547;50.774;12.918;2024-03-23T05:41:16;7.53;;;5.03;;
7013;SDS011;3547;50.774;12.918;2024-03-23T05:43:42;6.77;;;4.93;;
7013;SDS011;3547;50.774;12.918;2024-03-23T05:46:08;6.93;;;4.63;;
7013;SDS011;3547;50.774;12.918;2024-03-23T05:48:34;9.60;;;6.10;;
7013;SDS011;3547;50.774;12.918;2024-03-23T05:51:00;6.53;;;4.70;;
7013;SDS011;3547;50.774;12.918;2024-03-23T05:53:27;8.27;;;5.17;;
7013;SDS011;3547;50.774;12.918;2024-03-23T05:56:03;8.27;;;5.10;;
7013;SDS011;3547;50.774;12.918;2024-03-23T05:58:29;8.53;;;5.37;;
7013;SDS011;3547;50.774;12.918;2024-03-23T06:00:59;7.00;;;5.07;;
7013;SDS011;3547;50.774;12.918;2024-03-23T06:03:27;8.33;;;5.13;;
7013;SDS011;3547;50.774;12.918;2024-03-23T06:05:54;7.90;;;5.27;;
7013;SDS011;3547;50.774;12.918;2024-03-23T06:08:20;11.67;;;6.50;;
7013;SDS011;3547;50.774;12.918;2024-03-23T06:10:47;8.27;;;5.30;;
7013;SDS011;3547;50.774;12.918;2024-03-23T06:13:13;6.77;;;4.50;;
7013;SDS011;3547;50.774;12.918;2024-03-23T06:15:40;8.43;;;5.60;;
7013;SDS011;3547;50.774;12.918;2024-03-23T06:18:06;8.83;;;6.23;;
7013;SDS011;3547;50.774;12.918;2024-03-23T06:20:33;10.50;;;7.43;;
7013;SDS011;3547;50.774;12.918;2024-03-23T06:23:03;12.20;;;6.23;;
7013;SDS011;3547;50.774;12.918;2024-03-23T06:25:29;12.37;;;6.53;;
7013;SDS011;3547;50.774;12.918;2024-03-23T06:27:57;8.40;;;5.70;;
7013;SDS011;3547;50.774;12.918;2024-03-23T06:30:24;13.70;;;6.17;;
7013;SDS011;3547;50.774;12.918;2024-03-23T06:32:52;10.03;;;6.10;;
7013;SDS011;3547;50.774;12.918;2024-03-23T06:35:18;5.40;;;4.50;;
7013;SDS011;3547;50.774;12.918;2024-03-23T06:37:44;7.43;;;4.97;;
7013;SDS011;3547;50.774;12.918;2024-03-23T06:40:11;6.70;;;4.43;;
7013;SDS011;3547;50.774;12.918;2024-03-23T06:42:37;7.50;;;4.83;;
7013;SDS011;3547;50.774;12.918;2024-03-23T06:45:03;11.17;;;5.47;;
7013;SDS011;3547;50.774;12.918;2024-03-23T06:47:32;4.77;;;4.17;;
7013;SDS011;3547;50.774;12.918;2024-03-23T06:50:02;7.97;;;5.10;;
7013;SDS011;3547;50.774;12.918;2024-03-23T06:52:31;9.07;;;5.87;;
7013;SDS011;3547;50.774;12.918;2024-03-23T06:55:01;13.27;;;8.63;;
7013;SDS011;3547;50.774;12.918;2024-03-23T06:57:29;15.43;;;8.43;;
7013;SDS011;3547;50.774;12.918;2024-03-23T06:59:56;8.50;;;5.93;;
7013;SDS011;3547;50.774;12.918;2024-03-23T07:02:22;9.60;;;6.13;;
7013;SDS011;3547;50.774;12.918;2024-03-23T07:04:48;10.00;;;6.53;;
7013;SDS011;3547;50.774;12.918;2024-03-23T07:07:14;8.47;;;5.37;;
7013;SDS011;3547;50.774;12.918;2024-03-23T07:09:40;12.07;;;7.40;;
7013;SDS011;3547;50.774;12.918;2024-03-23T07:15:29;7.07;;;5.20;;
7013;SDS011;3547;50.774;12.918;2024-03-23T07:17:55;6.17;;;4.17;;
7013;SDS011;3547;50.774;12.918;2024-03-23T07:20:21;7.73;;;4.93;;
7013;SDS011;3547;50.774;12.918;2024-03-23T07:22:47;9.27;;;5.33;;
7013;SDS011;3547;50.774;12.918;2024-03-23T07:25:14;5.73;;;4.83;;
7013;SDS011;3547;50.774;12.918;2024-03-23T07:27:40;6.13;;;4.43;;
7013;SDS011;3547;50.774;12.918;2024-03-23T07:33:29;5.03;;;3.63;;
7013;SDS011;3547;50.774;12.918;2024-03-23T07:35:55;5.40;;;3.87;;
7013;SDS011;3547;50.774;12.918;2024-03-23T07:38:21;5.33;;;3.73;;
7013;SDS011;3547;50.774;12.918;2024-03-23T07:40:50;5.33;;;3.57;;
7013;SDS011;3547;50.774;12.918;2024-03-23T07:43:20;4.27;;;3.40;;
7013;SDS011;3547;50.774;12.918;2024-03-23T07:45:52;5.03;;;3.63;;
7013;SDS011;3547;50.774;12.918;2024-03-23T07:48:20;6.37;;;3.97;;
7013;SDS011;3547;50.774;12.918;2024-03-23T07:54:50;4.60;;;3.63;;
7013;SDS011;3547;50.774;12.918;2024-03-23T07:57:17;5.13;;;3.73;;
7013;SDS011;3547;50.774;12.918;2024-03-23T07:59:46;6.13;;;3.93;;
7013;SDS011;3547;50.774;12.918;2024-03-23T08:05:34;6.43;;;3.73;;
7013;SDS011;3547;50.774;12.918;2024-03-23T08:08:00;6.57;;;4.70;;
7013;SDS011;3547;50.774;12.918;2024-03-23T08:13:49;7.80;;;4.80;;
7013;SDS011;3547;50.774;12.918;2024-03-23T08:16:15;8.20;;;4.97;;
7013;SDS011;3547;50.774;12.918;2024-03-23T08:18:48;6.53;;;5.13;;
7013;SDS011;3547;50.774;12.918;2024-03-23T08:24:08;7.67;;;5.17;;
7013;SDS011;3547;50.774;12.918;2024-03-23T08:26:35;6.30;;;4.20;;
7013;SDS011;3547;50.774;12.918;2024-03-23T08:29:11;5.03;;;3.73;;
7013;SDS011;3547;50.774;12.918;2024-03-23T08:31:37;3.93;;;3.37;;
7013;SDS011;3547;50.774;12.918;2024-03-23T08:37:27;6.43;;;4.03;;
7013;SDS011;3547;50.774;12.918;2024-03-23T08:39:59;7.13;;;4.57;;
7013;SDS011;3547;50.774;12.918;2024-03-23T08:42:33;6.23;;;4.77;;
7013;SDS011;3547;50.774;12.918;2024-03-23T08:45:02;7.40;;;4.73;;
7013;SDS011;3547;50.774;12.918;2024-03-23T08:47:32;11.70;;;5.67;;
7013;SDS011;3547;50.774;12.918;2024-03-23T08:50:04;6.80;;;4.00;;
7013;SDS011;3547;50.774;12.918;2024-03-23T08:52:32;4.23;;;3.07;;
7013;SDS011;3547;50.774;12.918;2024-03-23T08:54:58;6.67;;;4.90;;
7013;SDS011;3547;50.774;12.918;2024-03-23T08:57:33;6.73;;;4.60;;
7013;SDS011;3547;50.774;12.918;2024-03-23T08:59:59;6.57;;;4.47;;
7013;SDS011;3547;50.774;12.918;2024-03-23T09:02:25;6.40;;;4.17;;
7013;SDS011;3547;50.774;12.918;2024-03-23T09:04:54;2.40;;;1.73;;
7013;SDS011;3547;50.774;12.918;2024-03-23T09:07:20;4.67;;;3.30;;
7013;SDS011;3547;50.774;12.918;2024-03-23T09:09:52;2.93;;;2.43;;
7013;SDS011;3547;50.774;12.918;2024-03-23T09:12:19;1.90;;;1.70;;
7013;SDS011;3547;50.774;12.918;2024-03-23T09:14:47;1.50;;;1.40;;
7013;SDS011;3547;50.774;12.918;2024-03-23T09:17:15;1.53;;;1.20;;
7013;SDS011;3547;50.774;12.918;2024-03-23T09:19:41;0.93;;;0.83;;
7013;SDS011;3547;50.774;12.918;2024-03-23T09:22:07;0.40;;;0.40;;
7013;SDS011;3547;50.774;12.918;2024-03-23T09:24:33;0.70;;;0.40;;
7013;SDS011;3547;50.774;12.918;2024-03-23T09:30:21;0.93;;;0.53;;
7013;SDS011;3547;50.774;12.918;2024-03-23T09:32:48;0.53;;;0.43;;
7013;SDS011;3547;50.774;12.918;2024-03-23T09:38:36;2.30;;;0.73;;
7013;SDS011;3547;50.774;12.918;2024-03-23T09:41:06;0.60;;;0.60;;
7013;SDS011;3547;50.774;12.918;2024-03-23T09:43:34;0.63;;;0.63;;
7013;SDS011;3547;50.774;12.918;2024-03-23T09:46:06;0.73;;;0.73;;
7013;SDS011;3547;50.774;12.918;2024-03-23T09:52:16;0.57;;;0.57;;
7013;SDS011;3547;50.774;12.918;2024-03-23T09:54:42;0.87;;;0.30;;
7013;SDS011;3547;50.774;12.918;2024-03-23T10:00:33;0.57;;;0.40;;
7013;SDS011;3547;50.774;12.918;2024-03-23T10:20:45;0.30;;;0.30;;
7013;SDS011;3547;50.774;12.918;2024-03-23T10:33:46;0.47;;;0.47;;
7013;SDS011;3547;50.774;12.918;2024-03-23T10:36:13;0.80;;;0.70;;
7013;SDS011;3547;50.774;12.918;2024-03-23T10:38:43;1.23;;;1.13;;
7013;SDS011;3547;50.774;12.918;2024-03-23T11:36:53;0.77;;;0.77;;
7013;SDS011;3547;50.774;12.918;2024-03-23T12:03:38;1.23;;;0.97;;
7013;SDS011;3547;50.774;12.918;2024-03-23T12:06:09;1.03;;;0.77;;
7013;SDS011;3547;50.774;12.918;2024-03-23T12:08:38;0.70;;;0.67;;
7013;SDS011;3547;50.774;12.918;2024-03-23T12:11:17;0.63;;;0.63;;
7013;SDS011;3547;50.774;12.918;2024-03-23T12:13:46;0.73;;;0.60;;
7013;SDS011;3547;50.774;12.918;2024-03-23T12:16:28;0.50;;;0.50;;
7013;SDS011;3547;50.774;12.918;2024-03-23T12:19:09;0.30;;;0.30;;
7013;SDS011;3547;50.774;12.918;2024-03-23T12:21:35;0.77;;;0.60;;
7013;SDS011;3547;50.774;12.918;2024-03-23T12:24:21;0.40;;;0.40;;
7013;SDS011;3547;50.774;12.918;2024-03-23T12:30:14;0.50;;;0.50;;
7013;SDS011;3547;50.774;12.918;2024-03-23T12:36:46;0.50;;;0.40;;
7013;SDS011;3547;50.774;12.918;2024-03-23T12:42:52;0.63;;;0.63;;
7013;SDS011;3547;50.774;12.918;2024-03-23T12:45:22;0.67;;;0.67;;
7013;SDS011;3547;50.774;12.918;2024-03-23T12:51:58;0.63;;;0.63;;
7013;SDS011;3547;50.774;12.918;2024-03-23T12:54:52;0.80;;;0.80;;
7013;SDS011;3547;50.774;12.918;2024-03-23T13:00:40;3.00;;;0.80;;
7013;SDS011;3547;50.774;12.918;2024-03-23T13:03:13;1.53;;;1.10;;
7013;SDS011;3547;50.774;12.918;2024-03-23T13:11:39;1.40;;;1.10;;
7013;SDS011;3547;50.774;12.918;2024-03-23T13:20:41;4.73;;;1.77;;
7013;SDS011;3547;50.774;12.918;2024-03-23T13:23:10;5.27;;;2.67;;
7013;SDS011;3547;50.774;12.918;2024-03-23T13:29:08;2.00;;;1.27;;
7013;SDS011;3547;50.774;12.918;2024-03-23T13:34:42;1.70;;;1.60;;
7013;SDS011;3547;50.774;12.918;2024-03-23T13:37:53;3.83;;;2.10;;
7013;SDS011;3547;50.774;12.918;2024-03-23T13:51:15;2.10;;;1.10;;
7013;SDS011;3547;50.774;12.918;2024-03-23T13:57:54;1.37;;;1.20;;
7013;SDS011;3547;50.774;12.918;2024-03-23T14:00:44;0.67;;;0.67;;
7013;SDS011;3547;50.774;12.918;2024-03-23T14:05:57;2.73;;;1.67;;
7013;SDS011;3547;50.774;12.918;2024-03-23T14:08:52;7.20;;;2.30;;
7013;SDS011;3547;50.774;12.918;2024-03-23T14:15:44;4.57;;;1.53;;
7013;SDS011;3547;50.774;12.918;2024-03-23T14:18:30;1.63;;;1.20;;
7013;SDS011;3547;50.774;12.918;2024-03-23T14:20:57;2.17;;;1.43;;
7013;SDS011;3547;50.774;12.918;2024-03-23T14:23:27;4.90;;;2.17;;
7013;SDS011;3547;50.774;12.918;2024-03-23T14:25:55;2.20;;;1.77;;
7013;SDS011;3547;50.774;12.918;2024-03-23T14:28:32;5.60;;;1.80;;
7013;SDS011;3547;50.774;12.918;2024-03-23T14:31:02;3.33;;;1.60;;
7013;SDS011;3547;50.774;12.918;2024-03-23T14:33:37;4.00;;;2.10;;
7013;SDS011;3547;50.774;12.918;2024-03-23T14:36:07;7.80;;;2.10;;
7013;SDS011;3547;50.774;12.918;2024-03-23T14:38:33;2.87;;;2.00;;
7013;SDS011;3547;50.774;12.918;2024-03-23T14:41:00;3.67;;;1.90;;
7013;SDS011;3547;50.774;12.918;2024-03-23T14:43:32;6.43;;;2.53;;
7013;SDS011;3547;50.774;12.918;2024-03-23T14:46:14;5.03;;;1.57;;
7013;SDS011;3547;50.774;12.918;2024-03-23T14:52:32;2.20;;;1.90;;
7013;SDS011;3547;50.774;12.918;2024-03-23T14:57:40;4.00;;;1.30;;
7013;SDS011;3547;50.774;12.918;2024-03-23T15:00:10;5.77;;;2.43;;
7013;SDS011;3547;50.774;12.918;2024-03-23T15:02:40;3.27;;;2.00;;
7013;SDS011;3547;50.774;12.918;2024-03-23T15:05:12;1.90;;;1.70;;
7013;SDS011;3547;50.774;12.918;2024-03-23T15:07:39;4.43;;;2.00;;
7013;SDS011;3547;50.774;12.918;2024-03-23T15:13:49;5.13;;;1.97;;
7013;SDS011;3547;50.774;12.918;2024-03-23T15:16:26;3.63;;;1.70;;
7013;SDS011;3547;50.774;12.918;2024-03-23T15:18:59;2.87;;;1.97;;
7013;SDS011;3547;50.774;12.918;2024-03-23T15:21:47;6.03;;;1.93;;
7013;SDS011;3547;50.774;12.918;2024-03-23T15:24:20;3.03;;;1.97;;
7013;SDS011;3547;50.774;12.918;2024-03-23T15:26:46;2.57;;;1.30;;
7013;SDS011;3547;50.774;12.918;2024-03-23T15:29:13;2.47;;;1.20;;
7013;SDS011;3547;50.774;12.918;2024-03-23T15:31:42;2.37;;;1.43;;
7013;SDS011;3547;50.774;12.918;2024-03-23T15:38:09;1.67;;;1.30;;
7013;SDS011;3547;50.774;12.918;2024-03-23T15:43:57;5.57;;;1.33;;
7013;SDS011;3547;50.774;12.918;2024-03-23T15:46:26;1.67;;;1.27;;
7013;SDS011;3547;50.774;12.918;2024-03-23T15:49:02;1.70;;;1.37;;
7013;SDS011;3547;50.774;12.918;2024-03-23T15:52:15;2.20;;;1.50;;
7013;SDS011;3547;50.774;12.918;2024-03-23T15:54:43;4.03;;;1.20;;
7013;SDS011;3547;50.774;12.918;2024-03-23T15:57:18;1.07;;;0.80;;
7013;SDS011;3547;50.774;12.918;2024-03-23T15:59:50;1.83;;;1.10;;
7013;SDS011;3547;50.774;12.918;2024-03-23T16:05:41;2.70;;;1.10;;
7013;SDS011;3547;50.774;12.918;2024-03-23T16:08:07;1.27;;;1.00;;
7013;SDS011;3547;50.774;12.918;2024-03-23T16:10:34;1.73;;;1.30;;
7013;SDS011;3547;50.774;12.918;2024-03-23T16:19:45;3.00;;;1.17;;
7013;SDS011;3547;50.774;12.918;2024-03-23T16:22:23;3.43;;;1.30;;
7013;SDS011;3547;50.774;12.918;2024-03-23T16:24:49;1.67;;;1.00;;
7013;SDS011;3547;50.774;12.918;2024-03-23T16:28:10;2.20;;;1.77;;
7013;SDS011;3547;50.774;12.918;2024-03-23T16:34:35;2.20;;;1.73;;
7013;SDS011;3547;50.774;12.918;2024-03-23T16:37:04;1.80;;;1.50;;
7013;SDS011;3547;50.774;12.918;2024-03-23T16:43:10;2.40;;;2.00;;
7013;SDS011;3547;50.774;12.918;2024-03-23T17:00:41;1.50;;;1.40;;
7013;SDS011;3547;50.774;12.918;2024-03-23T17:06:30;1.50;;;1.40;;
7013;SDS011;3547;50.774;12.918;2024-03-23T17:12:52;4.27;;;1.50;;
7013;SDS011;3547;50.774;12.918;2024-03-23T17:18:57;5.07;;;2.10;;
7013;SDS011;3547;50.774;12.918;2024-03-23T17:31:57;3.57;;;2.43;;
7013;SDS011;3547;50.774;12.918;2024-03-23T17:37:16;4.17;;;2.03;;
7013;SDS011;3547;50.774;12.918;2024-03-23T17:47:13;2.70;;;2.00;;
7013;SDS011;3547;50.774;12.918;2024-03-23T17:49:46;2.23;;;2.03;;
7013;SDS011;3547;50.774;12.918;2024-03-23T17:52:12;3.47;;;2.13;;
7013;SDS011;3547;50.774;12.918;2024-03-23T17:54:39;3.37;;;2.00;;
7013;SDS011;3547;50.774;12.918;2024-03-23T17:57:05;5.33;;;2.30;;
7013;SDS011;3547;50.774;12.918;2024-03-23T17:59:32;3.10;;;1.90;;
7013;SDS011;3547;50.774;12.918;2024-03-23T18:02:08;3.07;;;1.97;;
7013;SDS011;3547;50.774;12.918;2024-03-23T18:11:19;3.50;;;2.63;;
7013;SDS011;3547;50.774;12.918;2024-03-23T18:13:45;6.53;;;2.40;;
7013;SDS011;3547;50.774;12.918;2024-03-23T18:19:25;4.17;;;3.07;;
7013;SDS011;3547;50.774;12.918;2024-03-23T18:22:39;4.40;;;2.70;;
7013;SDS011;3547;50.774;12.918;2024-03-23T18:25:15;4.83;;;3.37;;
7013;SDS011;3547;50.774;12.918;2024-03-23T18:35:20;3.60;;;2.20;;
7013;SDS011;3547;50.774;12.918;2024-03-23T18:37:50;3.90;;;2.40;;
7013;SDS011;3547;50.774;12.918;2024-03-23T18:43:40;3.20;;;2.63;;
7013;SDS011;3547;50.774;12.918;2024-03-23T18:46:26;5.03;;;2.33;;
7013;SDS011;3547;50.774;12.918;2024-03-23T18:48:53;2.50;;;1.57;;
7013;SDS011;3547;50.774;12.918;2024-03-23T18:58:49;3.13;;;1.40;;
7013;SDS011;3547;50.774;12.918;2024-03-23T19:01:34;2.90;;;1.17;;
7013;SDS011;3547;50.774;12.918;2024-03-23T19:04:01;1.90;;;1.20;;
7013;SDS011;3547;50.774;12.918;2024-03-23T19:09:56;2.00;;;1.20;;
7013;SDS011;3547;50.774;12.918;2024-03-23T19:12:48;1.17;;;0.97;;
7013;SDS011;3547;50.774;12.918;2024-03-23T19:18:36;2.77;;;1.00;;
7013;SDS011;3547;50.774;12.918;2024-03-23T19:21:03;1.10;;;1.00;;
7013;SDS011;3547;50.774;12.918;2024-03-23T19:23:29;2.67;;;1.07;;
7013;SDS011;3547;50.774;12.918;2024-03-23T19:25:56;1.30;;;0.80;;
7013;SDS011;3547;50.774;12.918;2024-03-23T19:29:06;1.60;;;1.30;;
7013;SDS011;3547;50.774;12.918;2024-03-23T19:31:44;1.53;;;1.20;;
7013;SDS011;3547;50.774;12.918;2024-03-23T19:34:10;1.30;;;1.20;;
7013;SDS011;3547;50.774;12.918;2024-03-23T19:36:36;1.97;;;1.30;;
7013;SDS011;3547;50.774;12.918;2024-03-23T19:39:05;1.47;;;1.20;;
7013;SDS011;3547;50.774;12.918;2024-03-23T19:42:07;2.27;;;1.57;;
7013;SDS011;3547;50.774;12.918;2024-03-23T19:44:34;5.50;;;3.67;;
7013;SDS011;3547;50.774;12.918;2024-03-23T19:47:06;2.63;;;2.00;;
7013;SDS011;3547;50.774;12.918;2024-03-23T19:49:32;3.27;;;2.43;;
7013;SDS011;3547;50.774;12.918;2024-03-23T19:51:58;1.90;;;1.53;;
7013;SDS011;3547;50.774;12.918;2024-03-23T19:54:27;5.07;;;1.90;;
7013;SDS011;3547;50.774;12.918;2024-03-23T19:57:09;2.73;;;1.63;;
7013;SDS011;3547;50.774;12.918;2024-03-23T19:59:44;3.93;;;1.93;;
7013;SDS011;3547;50.774;12.918;2024-03-23T20:02:10;2.43;;;1.70;;
7013;SDS011;3547;50.774;12.918;2024-03-23T20:04:36;5.57;;;2.10;;
7013;SDS011;3547;50.774;12.918;2024-03-23T20:07:02;2.17;;;1.50;;
7013;SDS011;3547;50.774;12.918;2024-03-23T20:09:32;4.10;;;1.40;;
7013;SDS011;3547;50.774;12.918;2024-03-23T20:12:08;3.97;;;1.37;;
7013;SDS011;3547;50.774;12.918;2024-03-23T20:14:34;1.53;;;1.23;;
7013;SDS011;3547;50.774;12.918;2024-03-23T20:17:04;0.97;;;0.97;;
7013;SDS011;3547;50.774;12.918;2024-03-23T20:19:48;2.83;;;0.97;;
7013;SDS011;3547;50.774;12.918;2024-03-23T20:52:19;1.73;;;1.20;;
7013;SDS011;3547;50.774;12.918;2024-03-23T20:54:45;0.77;;;0.77;;
7013;SDS011;3547;50.774;12.918;2024-03-23T20:57:23;0.87;;;0.80;;
7013;SDS011;3547;50.774;12.918;2024-03-23T20:59:50;1.23;;;0.97;;
7013;SDS011;3547;50.774;12.918;2024-03-23T21:02:25;1.87;;;0.67;;
7013;SDS011;3547;50.774;12.918;2024-03-23T21:04:52;1.57;;;0.83;;
7013;SDS011;3547;50.774;12.918;2024-03-23T21:07:18;1.43;;;0.90;;
7013;SDS011;3547;50.774;12.918;2024-03-23T21:09:52;1.10;;;1.00;;
7013;SDS011;3547;50.774;12.918;2024-03-23T21:12:33;1.03;;;0.90;;
7013;SDS011;3547;50.774;12.918;2024-03-23T21:15:11;1.70;;;1.20;;
7013;SDS011;3547;50.774;12.918;2024-03-23T21:17:42;2.30;;;0.80;;
7013;SDS011;3547;50.774;12.918;2024-03-23T21:20:12;1.10;;;1.00;;
7013;SDS011;3547;50.774;12.918;2024-03-23T21:22:45;1.20;;;0.90;;
7013;SDS011;3547;50.774;12.918;2024-03-23T21:25:12;1.63;;;0.90;;
7013;SDS011;3547;50.774;12.918;2024-03-23T21:27:45;2.00;;;1.43;;
7013;SDS011;3547;50.774;12.918;2024-03-23T21:30:15;2.60;;;1.30;;
7013;SDS011;3547;50.774;12.918;2024-03-23T21:32:47;2.73;;;1.20;;
7013;SDS011;3547;50.774;12.918;2024-03-23T21:35:16;1.10;;;1.00;;
7013;SDS011;3547;50.774;12.918;2024-03-23T21:37:56;2.17;;;1.17;;
7013;SDS011;3547;50.774;12.918;2024-03-23T21:40:22;1.20;;;1.10;;
7013;SDS011;3547;50.774;12.918;2024-03-23T21:42:48;1.27;;;1.13;;
7013;SDS011;3547;50.774;12.918;2024-03-23T21:45:14;1.60;;;1.20;;
7013;SDS011;3547;50.774;12.918;2024-03-23T21:47:41;1.23;;;0.90;;
7013;SDS011;3547;50.774;12.918;2024-03-23T21:50:17;1.40;;;1.10;;
7013;SDS011;3547;50.774;12.918;2024-03-23T21:53:09;1.47;;;1.10;;
7013;SDS011;3547;50.774;12.918;2024-03-23T21:55:40;2.13;;;1.30;;
7013;SDS011;3547;50.774;12.918;2024-03-23T21:58:31;1.20;;;0.77;;
7013;SDS011;3547;50.774;12.918;2024-03-23T22:04:34;1.53;;;1.03;;